Stena Suede — ZCEF5 — position and weather

sailwx.info

Track history (hours):
 
Tides and Currents Weather Stations Pressure Air Temp Water Temp Dewpoint Dewpoint Depression Visibility Wind Speed Wind Dir Waves Ship Positions

Stena Suede

Last reported at 2016-Jul-26 14:32 UTC. Time now 2016-Jul-26 16:06 UTC.
Position N 38°30' W 074°39'.

Length 274 m; draft 8.7 m.

Type: Tanker. MMSI: 310622000.

Date/timePositionNaut miles runAvg speedWind from/ knotsBaromVisibWave heightAir tempDewpointWater temp
2016-Jul-26 14:32N 38°30' W 074°39'0 0.0
2016-Jul-26 09:17N 38°30' W 074°39'0 0.0
2016-Jul-26 07:29N 38°30' W 074°39'0 0.0
2016-Jul-26 03:32N 38°30' W 074°39'33 4.6
2016-Jul-25 20:18N 38°54' W 075°08'5 6.0
2016-Jul-25 19:29N 38°58' W 075°12'0 0.0
2016-Jul-25 18:29N 38°58' W 075°12'0 0.0
2016-Jul-25 17:32N 38°58' W 075°12'0 0.0
2016-Jul-25 16:32N 38°58' W 075°12'0 0.0
2016-Jul-25 14:32N 38°58' W 075°12'0 0.1
2016-Jul-25 13:29N 38°58' W 075°12'0 0.2
2016-Jul-25 12:32N 38°58' W 075°11'0 0.1
2016-Jul-25 11:32N 38°58' W 075°11'0 0.0
2016-Jul-25 10:29N 38°58' W 075°11'0 0.0
2016-Jul-25 09:29N 38°58' W 075°11'0 0.0
2016-Jul-25 08:32N 38°58' W 075°11'0 0.2
2016-Jul-25 07:32N 38°58' W 075°11'0 0.1
2016-Jul-25 06:32N 38°58' W 075°12'0 0.0
2016-Jul-25 05:33N 38°58' W 075°12'0 0.0
2016-Jul-25 04:32N 38°58' W 075°12'0 0.0
2016-Jul-25 03:32N 38°58' W 075°12'0 0.0
2016-Jul-25 02:32N 38°58' W 075°12'0 0.0
2016-Jul-25 01:33N 38°58' W 075°12'0 0.1
2016-Jul-25 00:32N 38°58' W 075°12'0 0.2
2016-Jul-24 23:32N 38°58' W 075°12'0 0.1
2016-Jul-24 22:32N 38°58' W 075°11'0 0.0
2016-Jul-24 21:31N 38°58' W 075°11'0 0.0
2016-Jul-24 20:32N 38°58' W 075°11'0 0.2
2016-Jul-24 19:32N 38°58' W 075°11'0 0.2
2016-Jul-24 18:29N 38°58' W 075°11'0 0.0
2016-Jul-24 17:32N 38°58' W 075°12'0 0.0
2016-Jul-24 16:32N 38°58' W 075°12'0 0.0
2016-Jul-24 15:29N 38°58' W 075°12'0 0.0
2016-Jul-24 14:29N 38°58' W 075°12'0 0.0
2016-Jul-24 13:33N 38°58' W 075°12'0 0.1
2016-Jul-24 12:30N 38°58' W 075°12'0 0.2
2016-Jul-24 11:33N 38°58' W 075°11'0 0.1
2016-Jul-24 10:33N 38°58' W 075°11'0 0.0
2016-Jul-24 09:30N 38°58' W 075°11'0 0.0
2016-Jul-24 08:32N 38°58' W 075°11'0 0.0
2016-Jul-24 07:32N 38°58' W 075°11'0 0.0
2016-Jul-24 06:32N 38°58' W 075°11'0 0.2
2016-Jul-24 05:31N 38°58' W 075°11'0 0.0
2016-Jul-24 04:32N 38°58' W 075°11'0 0.0
2016-Jul-24 03:32N 38°58' W 075°12'0 0.0
2016-Jul-24 02:32N 38°58' W 075°12'0 0.0
2016-Jul-24 01:26N 38°58' W 075°12'0 0.2
2016-Jul-24 00:23N 38°58' W 075°11'0 0.1
2016-Jul-23 23:33N 38°58' W 075°11'0 0.1
2016-Jul-23 22:32N 38°58' W 075°11'0 0.0
2016-Jul-23 21:26N 38°58' W 075°11'0 0.0
2016-Jul-23 20:26N 38°58' W 075°11'0 0.0
2016-Jul-23 18:32N 38°58' W 075°11'0 0.2
2016-Jul-23 17:26N 38°58' W 075°11'0 0.1
2016-Jul-23 16:29N 38°58' W 075°12'0 0.0
2016-Jul-23 13:32N 38°58' W 075°12'0 0.0
2016-Jul-23 12:32N 38°58' W 075°12'0 0.2
2016-Jul-23 11:32N 38°58' W 075°11'0 0.1
2016-Jul-23 10:32N 38°58' W 075°11'0 0.0
2016-Jul-23 09:32N 38°58' W 075°11'0 0.0
2016-Jul-23 08:32N 38°58' W 075°11'0 0.0
2016-Jul-23 07:32N 38°58' W 075°11'0 0.1
2016-Jul-23 06:32N 38°58' W 075°11'0 0.1
2016-Jul-23 04:32N 38°58' W 075°11'0 0.1
2016-Jul-23 03:32N 38°58' W 075°12'0 0.0
2016-Jul-23 02:29N 38°58' W 075°12'0 0.0
2016-Jul-23 01:26N 38°58' W 075°12'0 0.0
2016-Jul-23 00:29N 38°58' W 075°12'0 0.0
2016-Jul-22 23:31N 38°58' W 075°11'0 0.2
2016-Jul-22 22:04N 38°58' W 075°11'0 0.1
2016-Jul-22 21:32N 38°58' W 075°11'0 0.1
2016-Jul-22 20:23N 38°58' W 075°11'0 0.0
2016-Jul-22 19:14N 38°58' W 075°11'3 3.4
2016-Jul-22 18:29N 38°56' W 075°10'7 7.5
2016-Jul-22 17:33N 39°03' W 075°10'1312.7
2016-Jul-22 16:33N 39°14' W 075°18'1111.4
2016-Jul-22 15:34N 39°22' W 075°28'1010.5
2016-Jul-22 14:33N 39°32' W 075°33'1010.3
2016-Jul-22 13:34N 39°42' W 075°31'1111.1
2016-Jul-22 12:33N 39°50' W 075°21'7 6.5
2016-Jul-22 11:32N 39°52' W 075°13'0 0.0
2016-Jul-22 10:32N 39°52' W 075°13'0 0.0
2016-Jul-22 09:32N 39°52' W 075°13'0 0.0
2016-Jul-22 08:32N 39°52' W 075°13'0 0.0
2016-Jul-22 07:32N 39°52' W 075°13'0 0.0
2016-Jul-22 04:32N 39°52' W 075°13'0 0.0
2016-Jul-22 03:32N 39°52' W 075°13'0 0.0
2016-Jul-22 02:32N 39°52' W 075°13'0 0.0
2016-Jul-22 01:33N 39°52' W 075°13'0 0.0
2016-Jul-22 00:32N 39°52' W 075°13'0 0.0
2016-Jul-21 23:29N 39°52' W 075°13'0 0.0
2016-Jul-21 22:32N 39°52' W 075°13'0 0.0
2016-Jul-21 21:32N 39°52' W 075°13'0 0.0
2016-Jul-21 20:32N 39°52' W 075°13'0 0.0
2016-Jul-21 19:32N 39°52' W 075°13'0 0.0
2016-Jul-21 18:32N 39°52' W 075°13'0 0.0
2016-Jul-21 17:32N 39°52' W 075°13'0 0.0
2016-Jul-21 16:32N 39°52' W 075°13'0 0.0
2016-Jul-21 15:32N 39°52' W 075°13'0 0.0
2016-Jul-21 14:32N 39°52' W 075°13'0 0.0
2016-Jul-21 13:32N 39°52' W 075°13'0 0.0
2016-Jul-21 12:33N 39°52' W 075°13'0 0.0
2016-Jul-21 11:32N 39°52' W 075°13'0 0.0
2016-Jul-21 10:32N 39°52' W 075°13'0 0.0
2016-Jul-21 09:32N 39°52' W 075°13'0 0.0
2016-Jul-21 08:33N 39°52' W 075°13'0 0.0
2016-Jul-21 07:33N 39°52' W 075°13'0 0.0
2016-Jul-21 06:33N 39°52' W 075°13'2 2.4
2016-Jul-21 05:33N 39°51' W 075°16'8 7.6
2016-Jul-21 04:33N 39°48' W 075°25'9 9.4
2016-Jul-21 03:33N 39°40' W 075°32'10 9.7
2016-Jul-21 02:33N 39°31' W 075°33'1111.4
2016-Jul-21 01:34N 39°21' W 075°26'1212.3
2016-Jul-21 00:33N 39°11' W 075°16'1111.2
2016-Jul-20 23:34N 39°01' W 075°09'4 1.8
2016-Jul-20 21:21N 38°58' W 075°12'0 0.1
2016-Jul-20 20:33N 38°58' W 075°12'0 0.0
2016-Jul-20 19:33N 38°58' W 075°12'0 0.0
2016-Jul-20 18:33N 38°58' W 075°12'0 0.0
2016-Jul-20 17:33N 38°58' W 075°12'0 0.1
2016-Jul-20 16:21N 38°58' W 075°12'0 0.1
2016-Jul-20 11:21N 38°58' W 075°12'0 0.2
2016-Jul-20 10:28N 38°58' W 075°12'0 0.3
2016-Jul-20 09:32N 38°58' W 075°12'0 0.0
2016-Jul-20 08:33N 38°58' W 075°12'0 0.0
2016-Jul-20 07:31N 38°58' W 075°12'0 0.0
2016-Jul-20 06:29N 38°58' W 075°12'0 0.0
2016-Jul-20 04:33N 38°58' W 075°12'0 0.2
2016-Jul-20 03:30N 38°58' W 075°12'0 0.1
2016-Jul-20 02:33N 38°58' W 075°12'0 0.0
2016-Jul-20 01:33N 38°58' W 075°12'0 0.0
2016-Jul-20 00:33N 38°58' W 075°12'0 0.0
2016-Jul-19 23:15N 38°58' W 075°12'0 0.0
2016-Jul-19 22:33N 38°58' W 075°12'0 0.1
2016-Jul-19 21:24N 38°58' W 075°12'0 0.3
2016-Jul-19 20:33N 38°58' W 075°12'0 0.1
2016-Jul-19 19:30N 38°58' W 075°12'0 0.0
2016-Jul-19 18:33N 38°58' W 075°12'0 0.0
2016-Jul-19 17:33N 38°58' W 075°12'0 0.0
2016-Jul-19 16:33N 38°58' W 075°12'0 0.2
2016-Jul-19 15:30N 38°58' W 075°12'0 0.1
2016-Jul-19 14:33N 38°58' W 075°12'0 0.0
2016-Jul-19 12:30N 38°58' W 075°12'0 0.0
2016-Jul-19 10:15N 38°58' W 075°12'0 0.3
2016-Jul-19 09:30N 38°58' W 075°12'0 0.2
2016-Jul-19 08:33N 38°58' W 075°12'0 0.0
2016-Jul-19 07:33N 38°58' W 075°12'0 0.0
2016-Jul-19 04:33N 38°58' W 075°12'0 0.0
2016-Jul-19 03:33N 38°58' W 075°12'0 0.3
2016-Jul-19 02:33N 38°58' W 075°12'0 0.1
2016-Jul-19 01:33N 38°58' W 075°12'0 0.0
2016-Jul-19 00:30N 38°58' W 075°12'0 0.0
2016-Jul-18 23:30N 38°58' W 075°12'0 0.1
2016-Jul-18 22:30N 38°58' W 075°12'0 0.1
2016-Jul-18 20:12N 38°58' W 075°12'0 0.3
2016-Jul-18 19:33N 38°58' W 075°12'0 0.0
2016-Jul-18 18:24N 38°58' W 075°12'0 0.0
2016-Jul-18 17:18N 38°58' W 075°12'0 0.0
2016-Jul-18 16:33N 38°58' W 075°12'0 0.0
2016-Jul-18 15:24N 38°58' W 075°12'0 0.3
2016-Jul-18 14:33N 38°58' W 075°12'0 0.1
2016-Jul-18 13:33N 38°58' W 075°12'0 0.0
2016-Jul-18 12:27N 38°58' W 075°12'0 0.0
2016-Jul-18 11:33N 38°58' W 075°12'0 0.0
2016-Jul-18 10:29N 38°58' W 075°12'0 0.0
2016-Jul-18 09:31N 38°58' W 075°12'0 0.3
2016-Jul-18 08:33N 38°58' W 075°12'0 0.1
2016-Jul-18 07:33N 38°58' W 075°12'0 0.0
2016-Jul-18 06:33N 38°58' W 075°12'0 0.0
2016-Jul-18 05:33N 38°58' W 075°12'0 0.0
2016-Jul-18 04:33N 38°58' W 075°12'0 0.0
2016-Jul-18 03:33N 38°58' W 075°12'0 0.1
2016-Jul-18 02:33N 38°58' W 075°12'0 0.3
2016-Jul-18 01:33N 38°58' W 075°12'0 0.0
2016-Jul-18 00:06N 38°58' W 075°12'0 0.0
2016-Jul-17 23:33N 38°58' W 075°12'0 0.0
2016-Jul-17 21:27N 38°58' W 075°12'0 0.0
2016-Jul-17 20:33N 38°58' W 075°12'0 0.1
2016-Jul-17 19:30N 38°58' W 075°12'0 0.2
2016-Jul-17 18:33N 38°58' W 075°12'0 0.0
2016-Jul-17 17:33N 38°58' W 075°12'0 0.0
2016-Jul-17 16:33N 38°58' W 075°12'0 0.0
2016-Jul-17 15:33N 38°58' W 075°12'0 0.0
2016-Jul-17 14:21N 38°58' W 075°12'0 0.3
2016-Jul-17 13:33N 38°58' W 075°12'0 0.1
2016-Jul-17 12:33N 38°58' W 075°12'0 0.0
2016-Jul-17 11:33N 38°58' W 075°12'0 0.0
2016-Jul-17 10:33N 38°58' W 075°12'0 0.0
2016-Jul-17 09:30N 38°58' W 075°12'0 0.1
2016-Jul-17 08:32N 38°58' W 075°12'0 0.2
2016-Jul-17 07:27N 38°58' W 075°12'0 0.0
2016-Jul-17 06:33N 38°58' W 075°12'0 0.0
2016-Jul-17 04:27N 38°58' W 075°12'0 0.0
2016-Jul-17 03:33N 38°58' W 075°12'0 0.0
2016-Jul-17 02:33N 38°58' W 075°12'0 0.2
2016-Jul-17 01:33N 38°58' W 075°12'0 0.1
2016-Jul-16 22:27N 38°58' W 075°12'0 0.0
2016-Jul-16 21:27N 38°58' W 075°12'0 0.0
2016-Jul-16 20:33N 38°58' W 075°12'0 0.0
2016-Jul-16 19:33N 38°58' W 075°12'0 0.3
2016-Jul-16 18:33N 38°58' W 075°12'0 0.1
2016-Jul-16 17:30N 38°58' W 075°12'0 0.0
2016-Jul-16 16:33N 38°58' W 075°12'0 0.0
2016-Jul-16 15:33N 38°58' W 075°12'0 0.0
2016-Jul-16 14:33N 38°58' W 075°12'  
Track history (hours):
 
Tides and Currents Weather Stations Pressure Air Temp Water Temp Dewpoint Dewpoint Depression Visibility Wind Speed Wind Dir Waves Ship Positions

Stena Suede

Last reported at 2016-Jul-26 14:32 UTC. Time now 2016-Jul-26 16:06 UTC.
Position N 38°30' W 074°39'.

Length 274 m; draft 8.7 m.

Type: Tanker. MMSI: 310622000.

Date/timePositionNaut miles runAvg speedWind from/ knotsBaromVisibWave heightAir tempDewpointWater temp
2016-Jul-26 14:32N 38°30' W 074°39'0 0.0
2016-Jul-26 09:17N 38°30' W 074°39'0 0.0
2016-Jul-26 07:29N 38°30' W 074°39'0 0.0
2016-Jul-26 03:32N 38°30' W 074°39'33 4.6
2016-Jul-25 20:18N 38°54' W 075°08'5 6.0
2016-Jul-25 19:29N 38°58' W 075°12'0 0.0
2016-Jul-25 18:29N 38°58' W 075°12'0 0.0
2016-Jul-25 17:32N 38°58' W 075°12'0 0.0
2016-Jul-25 16:32N 38°58' W 075°12'0 0.0
2016-Jul-25 14:32N 38°58' W 075°12'0 0.1
2016-Jul-25 13:29N 38°58' W 075°12'0 0.2
2016-Jul-25 12:32N 38°58' W 075°11'0 0.1
2016-Jul-25 11:32N 38°58' W 075°11'0 0.0
2016-Jul-25 10:29N 38°58' W 075°11'0 0.0
2016-Jul-25 09:29N 38°58' W 075°11'0 0.0
2016-Jul-25 08:32N 38°58' W 075°11'0 0.2
2016-Jul-25 07:32N 38°58' W 075°11'0 0.1
2016-Jul-25 06:32N 38°58' W 075°12'0 0.0
2016-Jul-25 05:33N 38°58' W 075°12'0 0.0
2016-Jul-25 04:32N 38°58' W 075°12'0 0.0
2016-Jul-25 03:32N 38°58' W 075°12'0 0.0
2016-Jul-25 02:32N 38°58' W 075°12'0 0.0
2016-Jul-25 01:33N 38°58' W 075°12'0 0.1
2016-Jul-25 00:32N 38°58' W 075°12'0 0.2
2016-Jul-24 23:32N 38°58' W 075°12'0 0.1
2016-Jul-24 22:32N 38°58' W 075°11'0 0.0
2016-Jul-24 21:31N 38°58' W 075°11'0 0.0
2016-Jul-24 20:32N 38°58' W 075°11'0 0.2
2016-Jul-24 19:32N 38°58' W 075°11'0 0.2
2016-Jul-24 18:29N 38°58' W 075°11'0 0.0
2016-Jul-24 17:32N 38°58' W 075°12'0 0.0
2016-Jul-24 16:32N 38°58' W 075°12'0 0.0
2016-Jul-24 15:29N 38°58' W 075°12'0 0.0
2016-Jul-24 14:29N 38°58' W 075°12'0 0.0
2016-Jul-24 13:33N 38°58' W 075°12'0 0.1
2016-Jul-24 12:30N 38°58' W 075°12'0 0.2
2016-Jul-24 11:33N 38°58' W 075°11'0 0.1
2016-Jul-24 10:33N 38°58' W 075°11'0 0.0
2016-Jul-24 09:30N 38°58' W 075°11'0 0.0
2016-Jul-24 08:32N 38°58' W 075°11'0 0.0
2016-Jul-24 07:32N 38°58' W 075°11'0 0.0
2016-Jul-24 06:32N 38°58' W 075°11'0 0.2
2016-Jul-24 05:31N 38°58' W 075°11'0 0.0
2016-Jul-24 04:32N 38°58' W 075°11'0 0.0
2016-Jul-24 03:32N 38°58' W 075°12'0 0.0
2016-Jul-24 02:32N 38°58' W 075°12'0 0.0
2016-Jul-24 01:26N 38°58' W 075°12'0 0.2
2016-Jul-24 00:23N 38°58' W 075°11'0 0.1
2016-Jul-23 23:33N 38°58' W 075°11'0 0.1
2016-Jul-23 22:32N 38°58' W 075°11'0 0.0
2016-Jul-23 21:26N 38°58' W 075°11'0 0.0
2016-Jul-23 20:26N 38°58' W 075°11'0 0.0
2016-Jul-23 18:32N 38°58' W 075°11'0 0.2
2016-Jul-23 17:26N 38°58' W 075°11'0 0.1
2016-Jul-23 16:29N 38°58' W 075°12'0 0.0
2016-Jul-23 13:32N 38°58' W 075°12'0 0.0
2016-Jul-23 12:32N 38°58' W 075°12'0 0.2
2016-Jul-23 11:32N 38°58' W 075°11'0 0.1
2016-Jul-23 10:32N 38°58' W 075°11'0 0.0
2016-Jul-23 09:32N 38°58' W 075°11'0 0.0
2016-Jul-23 08:32N 38°58' W 075°11'0 0.0
2016-Jul-23 07:32N 38°58' W 075°11'0 0.1
2016-Jul-23 06:32N 38°58' W 075°11'0 0.1
2016-Jul-23 04:32N 38°58' W 075°11'0 0.1
2016-Jul-23 03:32N 38°58' W 075°12'0 0.0
2016-Jul-23 02:29N 38°58' W 075°12'0 0.0
2016-Jul-23 01:26N 38°58' W 075°12'0 0.0
2016-Jul-23 00:29N 38°58' W 075°12'0 0.0
2016-Jul-22 23:31N 38°58' W 075°11'0 0.2
2016-Jul-22 22:04N 38°58' W 075°11'0 0.1
2016-Jul-22 21:32N 38°58' W 075°11'0 0.1
2016-Jul-22 20:23N 38°58' W 075°11'0 0.0
2016-Jul-22 19:14N 38°58' W 075°11'3 3.4
2016-Jul-22 18:29N 38°56' W 075°10'7 7.5
2016-Jul-22 17:33N 39°03' W 075°10'1312.7
2016-Jul-22 16:33N 39°14' W 075°18'1111.4
2016-Jul-22 15:34N 39°22' W 075°28'1010.5
2016-Jul-22 14:33N 39°32' W 075°33'1010.3
2016-Jul-22 13:34N 39°42' W 075°31'1111.1
2016-Jul-22 12:33N 39°50' W 075°21'7 6.5
2016-Jul-22 11:32N 39°52' W 075°13'0 0.0
2016-Jul-22 10:32N 39°52' W 075°13'0 0.0
2016-Jul-22 09:32N 39°52' W 075°13'0 0.0
2016-Jul-22 08:32N 39°52' W 075°13'0 0.0
2016-Jul-22 07:32N 39°52' W 075°13'0 0.0
2016-Jul-22 04:32N 39°52' W 075°13'0 0.0
2016-Jul-22 03:32N 39°52' W 075°13'0 0.0
2016-Jul-22 02:32N 39°52' W 075°13'0 0.0
2016-Jul-22 01:33N 39°52' W 075°13'0 0.0
2016-Jul-22 00:32N 39°52' W 075°13'0 0.0
2016-Jul-21 23:29N 39°52' W 075°13'0 0.0
2016-Jul-21 22:32N 39°52' W 075°13'0 0.0
2016-Jul-21 21:32N 39°52' W 075°13'0 0.0
2016-Jul-21 20:32N 39°52' W 075°13'0 0.0
2016-Jul-21 19:32N 39°52' W 075°13'0 0.0
2016-Jul-21 18:32N 39°52' W 075°13'0 0.0
2016-Jul-21 17:32N 39°52' W 075°13'0 0.0
2016-Jul-21 16:32N 39°52' W 075°13'0 0.0
2016-Jul-21 15:32N 39°52' W 075°13'0 0.0
2016-Jul-21 14:32N 39°52' W 075°13'0 0.0
2016-Jul-21 13:32N 39°52' W 075°13'0 0.0
2016-Jul-21 12:33N 39°52' W 075°13'0 0.0
2016-Jul-21 11:32N 39°52' W 075°13'0 0.0
2016-Jul-21 10:32N 39°52' W 075°13'0 0.0
2016-Jul-21 09:32N 39°52' W 075°13'0 0.0
2016-Jul-21 08:33N 39°52' W 075°13'0 0.0
2016-Jul-21 07:33N 39°52' W 075°13'0 0.0
2016-Jul-21 06:33N 39°52' W 075°13'2 2.4
2016-Jul-21 05:33N 39°51' W 075°16'8 7.6
2016-Jul-21 04:33N 39°48' W 075°25'9 9.4
2016-Jul-21 03:33N 39°40' W 075°32'10 9.7
2016-Jul-21 02:33N 39°31' W 075°33'1111.4
2016-Jul-21 01:34N 39°21' W 075°26'1212.3
2016-Jul-21 00:33N 39°11' W 075°16'1111.2
2016-Jul-20 23:34N 39°01' W 075°09'4 1.8
2016-Jul-20 21:21N 38°58' W 075°12'0 0.1
2016-Jul-20 20:33N 38°58' W 075°12'0 0.0
2016-Jul-20 19:33N 38°58' W 075°12'0 0.0
2016-Jul-20 18:33N 38°58' W 075°12'0 0.0
2016-Jul-20 17:33N 38°58' W 075°12'0 0.1
2016-Jul-20 16:21N 38°58' W 075°12'0 0.1
2016-Jul-20 11:21N 38°58' W 075°12'0 0.2
2016-Jul-20 10:28N 38°58' W 075°12'0 0.3
2016-Jul-20 09:32N 38°58' W 075°12'0 0.0
2016-Jul-20 08:33N 38°58' W 075°12'0 0.0
2016-Jul-20 07:31N 38°58' W 075°12'0 0.0
2016-Jul-20 06:29N 38°58' W 075°12'0 0.0
2016-Jul-20 04:33N 38°58' W 075°12'0 0.2
2016-Jul-20 03:30N 38°58' W 075°12'0 0.1
2016-Jul-20 02:33N 38°58' W 075°12'0 0.0
2016-Jul-20 01:33N 38°58' W 075°12'0 0.0
2016-Jul-20 00:33N 38°58' W 075°12'0 0.0
2016-Jul-19 23:15N 38°58' W 075°12'0 0.0
2016-Jul-19 22:33N 38°58' W 075°12'0 0.1
2016-Jul-19 21:24N 38°58' W 075°12'0 0.3
2016-Jul-19 20:33N 38°58' W 075°12'0 0.1
2016-Jul-19 19:30N 38°58' W 075°12'0 0.0
2016-Jul-19 18:33N 38°58' W 075°12'0 0.0
2016-Jul-19 17:33N 38°58' W 075°12'0 0.0
2016-Jul-19 16:33N 38°58' W 075°12'0 0.2
2016-Jul-19 15:30N 38°58' W 075°12'0 0.1
2016-Jul-19 14:33N 38°58' W 075°12'0 0.0
2016-Jul-19 12:30N 38°58' W 075°12'0 0.0
2016-Jul-19 10:15N 38°58' W 075°12'0 0.3
2016-Jul-19 09:30N 38°58' W 075°12'0 0.2
2016-Jul-19 08:33N 38°58' W 075°12'0 0.0
2016-Jul-19 07:33N 38°58' W 075°12'0 0.0
2016-Jul-19 04:33N 38°58' W 075°12'0 0.0
2016-Jul-19 03:33N 38°58' W 075°12'0 0.3
2016-Jul-19 02:33N 38°58' W 075°12'0 0.1
2016-Jul-19 01:33N 38°58' W 075°12'0 0.0
2016-Jul-19 00:30N 38°58' W 075°12'0 0.0
2016-Jul-18 23:30N 38°58' W 075°12'0 0.1
2016-Jul-18 22:30N 38°58' W 075°12'0 0.1
2016-Jul-18 20:12N 38°58' W 075°12'0 0.3
2016-Jul-18 19:33N 38°58' W 075°12'0 0.0
2016-Jul-18 18:24N 38°58' W 075°12'0 0.0
2016-Jul-18 17:18N 38°58' W 075°12'0 0.0
2016-Jul-18 16:33N 38°58' W 075°12'0 0.0
2016-Jul-18 15:24N 38°58' W 075°12'0 0.3
2016-Jul-18 14:33N 38°58' W 075°12'0 0.1
2016-Jul-18 13:33N 38°58' W 075°12'0 0.0
2016-Jul-18 12:27N 38°58' W 075°12'0 0.0
2016-Jul-18 11:33N 38°58' W 075°12'0 0.0
2016-Jul-18 10:29N 38°58' W 075°12'0 0.0
2016-Jul-18 09:31N 38°58' W 075°12'0 0.3
2016-Jul-18 08:33N 38°58' W 075°12'0 0.1
2016-Jul-18 07:33N 38°58' W 075°12'0 0.0
2016-Jul-18 06:33N 38°58' W 075°12'0 0.0
2016-Jul-18 05:33N 38°58' W 075°12'0 0.0
2016-Jul-18 04:33N 38°58' W 075°12'0 0.0
2016-Jul-18 03:33N 38°58' W 075°12'0 0.1
2016-Jul-18 02:33N 38°58' W 075°12'0 0.3
2016-Jul-18 01:33N 38°58' W 075°12'0 0.0
2016-Jul-18 00:06N 38°58' W 075°12'0 0.0
2016-Jul-17 23:33N 38°58' W 075°12'0 0.0
2016-Jul-17 21:27N 38°58' W 075°12'0 0.0
2016-Jul-17 20:33N 38°58' W 075°12'0 0.1
2016-Jul-17 19:30N 38°58' W 075°12'0 0.2
2016-Jul-17 18:33N 38°58' W 075°12'0 0.0
2016-Jul-17 17:33N 38°58' W 075°12'0 0.0
2016-Jul-17 16:33N 38°58' W 075°12'0 0.0
2016-Jul-17 15:33N 38°58' W 075°12'0 0.0
2016-Jul-17 14:21N 38°58' W 075°12'0 0.3
2016-Jul-17 13:33N 38°58' W 075°12'0 0.1
2016-Jul-17 12:33N 38°58' W 075°12'0 0.0
2016-Jul-17 11:33N 38°58' W 075°12'0 0.0
2016-Jul-17 10:33N 38°58' W 075°12'0 0.0
2016-Jul-17 09:30N 38°58' W 075°12'0 0.1
2016-Jul-17 08:32N 38°58' W 075°12'0 0.2
2016-Jul-17 07:27N 38°58' W 075°12'0 0.0
2016-Jul-17 06:33N 38°58' W 075°12'0 0.0
2016-Jul-17 04:27N 38°58' W 075°12'0 0.0
2016-Jul-17 03:33N 38°58' W 075°12'0 0.0
2016-Jul-17 02:33N 38°58' W 075°12'0 0.2
2016-Jul-17 01:33N 38°58' W 075°12'0 0.1
2016-Jul-16 22:27N 38°58' W 075°12'0 0.0
2016-Jul-16 21:27N 38°58' W 075°12'0 0.0
2016-Jul-16 20:33N 38°58' W 075°12'0 0.0
2016-Jul-16 19:33N 38°58' W 075°12'0 0.3
2016-Jul-16 18:33N 38°58' W 075°12'0 0.1
2016-Jul-16 17:30N 38°58' W 075°12'0 0.0
2016-Jul-16 16:33N 38°58' W 075°12'0 0.0
2016-Jul-16 15:33N 38°58' W 075°12'0 0.0
2016-Jul-16 14:33N 38°58' W 075°12'  

Dump ship's entire track history